createdAt,value
2023-03-26T00:00:39.577Z,103
2023-03-26T00:01:46.528Z,126
2023-03-26T00:02:53.224Z,121
2023-03-26T00:04:00.743Z,113
2023-03-26T00:05:07.593Z,114
2023-03-26T00:06:14.386Z,110
2023-03-26T00:07:21.235Z,95
2023-03-26T00:08:28.131Z,114
2023-03-26T00:09:34.852Z,113
2023-03-26T00:10:41.659Z,116
2023-03-26T00:11:48.481Z,116
2023-03-26T00:12:55.460Z,111
2023-03-26T00:14:02.266Z,112
2023-03-26T00:15:09.054Z,114
2023-03-26T00:16:15.868Z,111
2023-03-26T00:17:22.693Z,114
2023-03-26T00:18:29.651Z,111
2023-03-26T00:19:36.524Z,111
2023-03-26T00:20:43.258Z,114
2023-03-26T00:21:50.096Z,108
2023-03-26T00:22:56.852Z,111
2023-03-26T00:24:06.621Z,103
2023-03-26T00:25:16.145Z,110
2023-03-26T00:26:22.925Z,106
2023-03-26T00:27:29.849Z,104
2023-03-26T00:28:36.711Z,103
2023-03-26T00:29:43.495Z,103
2023-03-26T00:30:50.286Z,99
2023-03-26T00:32:02.185Z,103
2023-03-26T00:33:09.234Z,104
2023-03-26T00:34:16.098Z,103
2023-03-26T00:35:22.889Z,105
2023-03-26T00:36:29.774Z,98
2023-03-26T00:37:36.590Z,100
2023-03-26T00:38:43.414Z,100
2023-03-26T00:39:50.245Z,100
2023-03-26T00:40:57.115Z,105
2023-03-26T00:42:03.992Z,99
2023-03-26T00:43:10.761Z,96
2023-03-26T00:44:17.563Z,92
2023-03-26T00:45:24.325Z,94
2023-03-26T00:46:31.326Z,93
2023-03-26T00:47:38.080Z,90
2023-03-26T00:48:45.971Z,102
2023-03-26T00:49:51.707Z,102
2023-03-26T00:50:58.464Z,104
2023-03-26T00:52:05.275Z,95
2023-03-26T00:53:12.116Z,100
2023-03-26T00:54:18.902Z,97
2023-03-26T00:55:25.716Z,98
2023-03-26T00:56:32.583Z,98
2023-03-26T00:57:39.467Z,89
2023-03-26T00:58:46.298Z,97
2023-03-26T00:59:53.364Z,97
2023-03-26T01:01:00.284Z,95
2023-03-26T01:02:07.292Z,92
2023-03-26T01:03:19.307Z,90
2023-03-26T01:04:21.162Z,94
2023-03-26T01:05:30.715Z,92
2023-03-26T01:06:43.228Z,90
2023-03-26T01:07:50.038Z,95
2023-03-26T01:08:56.906Z,95
2023-03-26T01:10:08.826Z,97
2023-03-26T01:11:15.765Z,98
2023-03-26T01:12:25.500Z,96
2023-03-26T01:13:32.304Z,91
2023-03-26T01:14:42.046Z,96
2023-03-26T01:15:48.874Z,97
2023-03-26T01:16:55.690Z,101
2023-03-26T01:18:02.565Z,94
2023-03-26T01:19:09.598Z,98
2023-03-26T01:20:21.471Z,97
2023-03-26T01:21:28.433Z,105
2023-03-26T01:22:35.250Z,101
2023-03-26T01:23:42.083Z,108
2023-03-26T01:24:48.875Z,107
2023-03-26T01:25:58.432Z,98
2023-03-26T01:27:05.236Z,107
2023-03-26T01:28:22.126Z,99
2023-03-26T01:29:28.904Z,93
2023-03-26T01:30:35.757Z,101
2023-03-26T01:31:42.589Z,105
2023-03-26T01:32:52.012Z,98
2023-03-26T01:34:03.780Z,104
2023-03-26T01:35:15.623Z,100
2023-03-26T01:36:28.170Z,102
2023-03-26T01:37:37.693Z,107
2023-03-26T01:38:54.564Z,107
2023-03-26T01:40:11.534Z,99
2023-03-26T01:41:21.429Z,100
2023-03-26T01:42:30.991Z,109
2023-03-26T01:43:41.012Z,110
2023-03-26T01:44:53.520Z,104
2023-03-26T01:46:05.400Z,101
2023-03-26T01:47:12.184Z,105
2023-03-26T01:48:19.089Z,104
2023-03-26T01:49:25.858Z,106
2023-03-26T01:50:32.654Z,100
2023-03-26T01:51:39.391Z,99
2023-03-26T01:52:46.172Z,101
2023-03-26T01:53:53.112Z,97
2023-03-26T01:54:59.979Z,110
2023-03-26T01:56:06.801Z,105
2023-03-26T01:57:16.253Z,107
2023-03-26T01:58:28.897Z,107
2023-03-26T01:59:40.778Z,104
2023-03-26T02:00:57.694Z,111
2023-03-26T02:02:07.295Z,105
2023-03-26T02:03:17.132Z,115
2023-03-26T02:04:28.937Z,106
2023-03-26T02:05:40.882Z,112
2023-03-26T02:06:50.569Z,119
2023-03-26T02:07:57.459Z,116
2023-03-26T02:09:12.375Z,118
2023-03-26T02:10:19.261Z,113
2023-03-26T02:11:33.608Z,116
2023-03-26T02:12:32.913Z,113
2023-03-26T02:13:39.711Z,118
2023-03-26T02:14:46.548Z,114
2023-03-26T02:15:53.568Z,111
2023-03-26T02:17:06.091Z,108
2023-03-26T02:18:12.984Z,110
2023-03-26T02:19:20.256Z,110
2023-03-26T02:20:26.545Z,106
2023-03-26T02:21:33.324Z,114
2023-03-26T02:22:40.096Z,112
2023-03-26T02:23:47.250Z,116
2023-03-26T02:24:53.653Z,118
2023-03-26T02:26:00.504Z,120
2023-03-26T02:27:09.895Z,114
2023-03-26T02:28:16.727Z,114
2023-03-26T02:29:23.576Z,115
2023-03-26T02:30:30.487Z,115
2023-03-26T02:31:37.321Z,114
2023-03-26T02:32:44.153Z,112
2023-03-26T02:33:50.815Z,114
2023-03-26T02:34:57.571Z,109
2023-03-26T02:36:04.634Z,116
2023-03-26T02:37:11.538Z,110
2023-03-26T02:38:18.274Z,110
2023-03-26T02:39:25.123Z,117
2023-03-26T02:40:31.865Z,111
2023-03-26T02:41:38.730Z,105
2023-03-26T02:42:45.625Z,107
2023-03-26T02:43:52.433Z,111
2023-03-26T02:44:59.231Z,109
2023-03-26T02:46:06.156Z,116
2023-03-26T02:47:13.008Z,104
2023-03-26T02:48:19.822Z,105
2023-03-26T02:49:26.643Z,101
2023-03-26T02:50:33.381Z,103
2023-03-26T02:51:40.114Z,108
2023-03-26T02:52:46.868Z,112
2023-03-26T02:53:53.839Z,104
2023-03-26T02:55:00.564Z,99
2023-03-26T02:56:07.318Z,112
2023-03-26T02:57:14.171Z,107
2023-03-26T02:58:20.955Z,105
2023-03-26T02:59:27.941Z,102
2023-03-26T03:00:34.723Z,114
2023-03-26T03:01:41.526Z,110
2023-03-26T03:02:48.581Z,113
2023-03-26T03:03:55.092Z,114
2023-03-26T03:05:02.033Z,125
2023-03-26T03:06:08.958Z,118
2023-03-26T03:07:15.780Z,119
2023-03-26T03:08:22.652Z,111
2023-03-26T03:09:29.413Z,116
2023-03-26T03:10:36.254Z,115
2023-03-26T03:11:43.181Z,116
2023-03-26T03:12:50.020Z,121
2023-03-26T03:13:56.812Z,118
2023-03-26T03:15:03.625Z,118
2023-03-26T03:16:10.944Z,114
2023-03-26T03:17:17.808Z,124
2023-03-26T03:18:24.579Z,111
2023-03-26T03:19:31.361Z,121
2023-03-26T03:20:38.139Z,114
2023-03-26T03:21:45.070Z,113
2023-03-26T03:22:51.917Z,116
2023-03-26T03:23:59.881Z,122
2023-03-26T03:25:05.446Z,120
2023-03-26T03:26:17.236Z,117
2023-03-26T03:27:24.032Z,116
2023-03-26T03:28:30.846Z,109
2023-03-26T03:29:37.760Z,112
2023-03-26T03:30:44.624Z,116
2023-03-26T03:31:51.346Z,115
2023-03-26T03:32:58.157Z,112
2023-03-26T03:34:04.957Z,117
2023-03-26T03:35:11.745Z,108
2023-03-26T03:36:20.036Z,117
2023-03-26T03:37:28.689Z,113
2023-03-26T03:38:35.499Z,110
2023-03-26T03:39:42.361Z,104
2023-03-26T03:40:49.216Z,103
2023-03-26T03:41:56.019Z,96
2023-03-26T03:43:02.862Z,101
2023-03-26T03:44:09.715Z,102
2023-03-26T03:45:16.514Z,102
2023-03-26T03:46:23.333Z,99
2023-03-26T03:47:30.090Z,98
2023-03-26T03:48:36.975Z,96
2023-03-26T03:49:43.919Z,106
2023-03-26T03:50:50.683Z,100
2023-03-26T03:51:57.447Z,106
2023-03-26T03:53:04.280Z,100
2023-03-26T03:54:11.018Z,96
2023-03-26T03:55:17.844Z,102
2023-03-26T03:56:24.623Z,103
2023-03-26T03:57:31.434Z,96
2023-03-26T03:58:38.212Z,101
2023-03-26T03:59:47.711Z,98
2023-03-26T04:00:51.892Z,96
2023-03-26T04:01:58.831Z,88
2023-03-26T04:03:05.662Z,94
2023-03-26T04:04:12.440Z,92
2023-03-26T04:05:19.172Z,100
2023-03-26T04:06:26.034Z,95
2023-03-26T04:07:32.927Z,95
2023-03-26T04:08:39.736Z,95
2023-03-26T04:09:46.579Z,89
2023-03-26T04:10:53.336Z,99
2023-03-26T04:12:00.152Z,91
2023-03-26T04:13:07.133Z,97
2023-03-26T04:14:13.889Z,90
2023-03-26T04:15:20.649Z,92
2023-03-26T04:16:27.454Z,85
2023-03-26T04:17:34.408Z,87
2023-03-26T04:18:41.195Z,90
2023-03-26T04:19:47.985Z,82
2023-03-26T04:20:54.733Z,89
2023-03-26T04:22:01.541Z,90
2023-03-26T04:23:08.426Z,93
2023-03-26T04:24:17.977Z,93
2023-03-26T04:25:24.785Z,98
2023-03-26T04:26:31.529Z,93
2023-03-26T04:27:38.355Z,95
2023-03-26T04:28:45.197Z,91
2023-03-26T04:29:54.961Z,98
2023-03-26T04:31:01.838Z,103
2023-03-26T04:32:08.907Z,101
2023-03-26T04:33:23.549Z,105
2023-03-26T04:34:30.381Z,100
2023-03-26T04:35:37.284Z,111
2023-03-26T04:36:44.108Z,110
2023-03-26T04:37:50.940Z,112
2023-03-26T04:38:57.755Z,112
2023-03-26T04:40:04.592Z,110
2023-03-26T04:41:17.328Z,120
2023-03-26T04:42:24.129Z,124
2023-03-26T04:43:31.105Z,118
2023-03-26T04:44:40.944Z,112
2023-03-26T04:45:47.592Z,117
2023-03-26T04:46:54.502Z,120
2023-03-26T04:48:01.337Z,121
2023-03-26T04:49:08.076Z,114
2023-03-26T04:50:14.895Z,114
2023-03-26T04:51:21.728Z,120
2023-03-26T04:52:28.590Z,115
2023-03-26T04:53:35.391Z,125
2023-03-26T04:54:42.130Z,122
2023-03-26T04:55:48.880Z,111
2023-03-26T04:56:55.885Z,126
2023-03-26T04:58:05.470Z,112
2023-03-26T04:59:12.217Z,112
2023-03-26T05:00:18.960Z,117
2023-03-26T05:01:25.902Z,106
2023-03-26T05:02:32.765Z,115
2023-03-26T05:03:39.640Z,112
2023-03-26T05:04:46.540Z,114
2023-03-26T05:05:54.320Z,116
2023-03-26T05:07:00.926Z,112
2023-03-26T05:08:07.826Z,121
2023-03-26T05:09:14.652Z,117
2023-03-26T05:10:21.416Z,114
2023-03-26T05:11:28.239Z,114
2023-03-26T05:12:35.059Z,112
2023-03-26T05:13:41.902Z,110
2023-03-26T05:14:48.720Z,117
2023-03-26T05:15:55.536Z,115
2023-03-26T05:17:02.337Z,116
2023-03-26T05:18:09.191Z,117
2023-03-26T05:19:15.895Z,121
2023-03-26T05:20:22.677Z,119
2023-03-26T05:21:29.549Z,112
2023-03-26T05:22:38.050Z,107
2023-03-26T05:23:43.190Z,104
2023-03-26T05:24:49.977Z,99
2023-03-26T05:25:56.730Z,113
2023-03-26T05:27:03.626Z,109
2023-03-26T05:28:10.481Z,111
2023-03-26T05:29:17.270Z,106
2023-03-26T05:30:24.043Z,111
2023-03-26T05:31:30.790Z,107
2023-03-26T05:32:37.616Z,101
2023-03-26T05:33:44.497Z,108
2023-03-26T05:34:51.193Z,102
2023-03-26T05:35:58.033Z,110
2023-03-26T05:37:10.024Z,103
2023-03-26T05:38:16.804Z,110
2023-03-26T05:39:23.622Z,101
2023-03-26T05:40:30.401Z,107
2023-03-26T05:41:37.429Z,109
2023-03-26T05:42:44.242Z,109
2023-03-26T05:43:51.085Z,113
2023-03-26T05:44:57.859Z,106
2023-03-26T05:46:04.672Z,102
2023-03-26T05:47:11.576Z,114
2023-03-26T05:48:18.324Z,110
2023-03-26T05:49:25.156Z,105
2023-03-26T05:50:31.976Z,113
2023-03-26T05:51:38.744Z,108
2023-03-26T05:52:45.521Z,109
2023-03-26T05:53:52.358Z,111
2023-03-26T05:54:59.095Z,104
2023-03-26T05:56:05.864Z,104
2023-03-26T05:57:12.753Z,113
2023-03-26T05:58:19.542Z,115
2023-03-26T05:59:26.499Z,108
2023-03-26T06:00:33.267Z,110
2023-03-26T06:01:40.156Z,111
2023-03-26T06:02:47.142Z,121
2023-03-26T06:03:53.746Z,117
2023-03-26T06:05:00.605Z,115
2023-03-26T06:06:07.513Z,110
2023-03-26T06:07:14.292Z,113
2023-03-26T06:08:21.085Z,121
2023-03-26T06:09:27.879Z,119
2023-03-26T06:10:34.802Z,111
2023-03-26T06:11:41.766Z,121
2023-03-26T06:12:48.492Z,115
2023-03-26T06:13:55.221Z,109
2023-03-26T06:15:02.048Z,120
2023-03-26T06:16:09.220Z,117
2023-03-26T06:17:16.084Z,109
2023-03-26T06:18:22.945Z,108
2023-03-26T06:19:29.659Z,110
2023-03-26T06:20:36.453Z,109
2023-03-26T06:21:43.310Z,99
2023-03-26T06:22:50.162Z,110
2023-03-26T06:23:56.924Z,104
2023-03-26T06:25:03.699Z,107
2023-03-26T06:26:10.676Z,100
2023-03-26T06:27:17.489Z,97
2023-03-26T06:28:24.310Z,92
2023-03-26T06:29:31.121Z,85
2023-03-26T06:30:37.903Z,92
2023-03-26T06:31:44.736Z,91
2023-03-26T06:32:53.407Z,82
2023-03-26T06:34:01.450Z,83
2023-03-26T06:35:08.471Z,83
2023-03-26T06:36:15.370Z,78
2023-03-26T06:37:22.191Z,75
2023-03-26T06:38:29.081Z,70
2023-03-26T06:39:35.868Z,72
2023-03-26T06:40:42.691Z,62
2023-03-26T06:41:49.501Z,71
2023-03-26T06:43:07.243Z,70
2023-03-26T06:44:03.090Z,65
2023-03-26T06:45:09.934Z,60
2023-03-26T06:46:16.880Z,70
2023-03-26T06:47:23.692Z,66
2023-03-26T06:48:30.476Z,60
2023-03-26T06:49:37.371Z,62
2023-03-26T06:50:44.048Z,62
2023-03-26T06:51:50.801Z,57
2023-03-26T06:52:58.013Z,60
2023-03-26T06:54:04.854Z,47
2023-03-26T06:55:11.596Z,41
2023-03-26T06:56:18.402Z,41
2023-03-26T06:57:25.216Z,48
2023-03-26T06:58:32.089Z,37
2023-03-26T06:59:38.892Z,32
2023-03-26T07:00:45.662Z,38
2023-03-26T07:01:52.446Z,33
2023-03-26T07:02:59.356Z,29
2023-03-26T07:04:06.256Z,34
2023-03-26T07:05:13.104Z,33
2023-03-26T07:06:19.938Z,28
2023-03-26T07:07:26.669Z,49
2023-03-26T07:08:33.424Z,37
2023-03-26T07:09:40.300Z,33
2023-03-26T07:10:47.025Z,33
2023-03-26T07:11:53.794Z,38
2023-03-26T07:13:00.550Z,48
2023-03-26T07:14:08.470Z,29
2023-03-26T07:15:15.251Z,37
2023-03-26T07:16:22.136Z,42
2023-03-26T07:17:28.912Z,25
2023-03-26T07:18:35.671Z,55
2023-03-26T07:19:42.499Z,47
2023-03-26T07:20:49.423Z,46
2023-03-26T07:21:57.093Z,32
2023-03-26T07:23:04.031Z,36
2023-03-26T07:24:10.932Z,34
2023-03-26T07:25:17.861Z,29
2023-03-26T07:26:24.806Z,27
2023-03-26T07:27:39.291Z,31
2023-03-26T07:29:03.922Z,37
2023-03-26T07:29:57.984Z,36
2023-03-26T07:31:12.853Z,27
2023-03-26T07:32:23.028Z,42
2023-03-26T07:33:35.527Z,34
2023-03-26T07:34:52.490Z,44
2023-03-26T07:36:04.489Z,31
2023-03-26T07:37:18.941Z,33
2023-03-26T07:38:28.610Z,31
2023-03-26T07:39:40.481Z,42
2023-03-26T07:40:57.469Z,34
2023-03-26T07:42:09.256Z,25
2023-03-26T07:43:23.795Z,31
2023-03-26T07:44:35.999Z,28
2023-03-26T07:45:47.729Z,28
2023-03-26T07:46:54.530Z,25
2023-03-26T07:48:01.289Z,35
2023-03-26T07:49:07.990Z,27
2023-03-26T07:50:16.054Z,25
2023-03-26T07:51:21.856Z,33
2023-03-26T07:52:28.941Z,39
2023-03-26T07:53:35.865Z,34
2023-03-26T07:54:42.759Z,31
2023-03-26T07:55:49.687Z,34
2023-03-26T07:57:02.090Z,25
2023-03-26T07:58:08.341Z,26
2023-03-26T07:59:17.960Z,25
2023-03-26T08:00:32.400Z,32
2023-03-26T08:01:44.311Z,31
2023-03-26T08:03:01.452Z,35
2023-03-26T08:04:23.026Z,35
2023-03-26T08:05:30.056Z,26
2023-03-26T08:06:37.091Z,35
2023-03-26T08:07:43.779Z,25
2023-03-26T08:08:58.405Z,27
2023-03-26T08:10:10.244Z,29
2023-03-26T08:11:24.757Z,34
2023-03-26T08:12:41.619Z,27
2023-03-26T08:13:56.231Z,29
2023-03-26T08:15:10.972Z,35
2023-03-26T08:16:25.913Z,32
2023-03-26T08:17:37.723Z,37
2023-03-26T08:18:49.493Z,34
2023-03-26T08:20:01.290Z,32
2023-03-26T08:21:18.131Z,32
2023-03-26T08:22:27.576Z,25
2023-03-26T08:23:34.321Z,25
2023-03-26T08:24:51.239Z,27
2023-03-26T08:26:06.353Z,25
2023-03-26T08:27:23.189Z,37
2023-03-26T08:28:37.634Z,40
2023-03-26T08:29:49.457Z,31
2023-03-26T08:31:04.301Z,26
2023-03-26T08:32:11.136Z,45
2023-03-26T08:33:17.899Z,25
2023-03-26T08:34:24.926Z,25
2023-03-26T08:35:31.633Z,29
2023-03-26T08:36:38.335Z,25
2023-03-26T08:37:45.168Z,25
2023-03-26T08:38:51.857Z,36
2023-03-26T08:39:58.590Z,33
2023-03-26T08:41:05.456Z,40
2023-03-26T08:42:12.213Z,53
2023-03-26T08:43:26.858Z,46
2023-03-26T08:44:43.753Z,41
2023-03-26T08:45:55.557Z,40
2023-03-26T08:47:08.288Z,34
2023-03-26T08:48:23.060Z,33
2023-03-26T08:49:39.941Z,25
2023-03-26T08:50:57.042Z,25
2023-03-26T08:52:09.461Z,27
2023-03-26T08:53:26.394Z,42
2023-03-26T08:54:33.257Z,28
2023-03-26T08:55:45.103Z,32
2023-03-26T08:56:56.995Z,33
2023-03-26T08:58:06.341Z,29
2023-03-26T08:59:18.176Z,25
2023-03-26T09:00:32.981Z,28
2023-03-26T09:01:44.982Z,31
2023-03-26T09:02:56.815Z,40
2023-03-26T09:04:13.784Z,31
2023-03-26T09:05:26.348Z,31
2023-03-26T09:06:41.153Z,28
2023-03-26T09:07:52.973Z,37
2023-03-26T09:08:59.759Z,32
2023-03-26T09:10:11.569Z,36
2023-03-26T09:11:23.400Z,31
2023-03-26T09:12:40.350Z,34
2023-03-26T09:13:54.709Z,25
2023-03-26T09:15:06.516Z,28
2023-03-26T09:16:23.515Z,37
2023-03-26T09:17:33.377Z,25
2023-03-26T09:18:45.221Z,37
2023-03-26T09:20:02.312Z,31
2023-03-26T09:21:14.122Z,32
2023-03-26T09:22:31.007Z,30
2023-03-26T09:23:42.950Z,43
2023-03-26T09:24:52.701Z,41
2023-03-26T09:26:07.323Z,41
2023-03-26T09:27:17.113Z,31
2023-03-26T09:28:33.981Z,35
2023-03-26T09:29:50.916Z,29
2023-03-26T09:31:07.912Z,34
2023-03-26T09:32:17.684Z,38
2023-03-26T09:33:27.125Z,34
2023-03-26T09:34:44.013Z,32
2023-03-26T09:36:01.011Z,32
2023-03-26T09:37:12.823Z,32
2023-03-26T09:38:24.706Z,27
2023-03-26T09:39:39.130Z,26
2023-03-26T09:40:49.037Z,44
2023-03-26T09:42:00.631Z,35
2023-03-26T09:43:13.439Z,31
2023-03-26T09:44:30.342Z,29
2023-03-26T09:45:45.024Z,33
2023-03-26T09:46:54.849Z,25
2023-03-26T09:48:11.790Z,25
2023-03-26T09:49:26.418Z,35
2023-03-26T09:50:39.090Z,29
2023-03-26T09:51:56.056Z,29
2023-03-26T09:53:12.994Z,33
2023-03-26T09:54:29.894Z,26
2023-03-26T09:55:42.323Z,30
2023-03-26T09:56:52.232Z,51
2023-03-26T09:58:09.109Z,36
2023-03-26T09:59:26.101Z,27
2023-03-26T10:00:35.780Z,25
2023-03-26T10:01:47.753Z,32
2023-03-26T10:02:59.721Z,29
2023-03-26T10:04:14.667Z,25
2023-03-26T10:05:26.539Z,31
2023-03-26T10:06:38.461Z,33
2023-03-26T10:07:45.364Z,38
2023-03-26T10:08:59.880Z,25
2023-03-26T10:10:16.872Z,25
2023-03-26T10:11:28.888Z,38
2023-03-26T10:12:45.780Z,37
2023-03-26T10:13:55.196Z,29
2023-03-26T10:15:07.140Z,37
2023-03-26T10:16:16.718Z,30
2023-03-26T10:17:31.312Z,26
2023-03-26T10:18:48.176Z,27
2023-03-26T10:20:00.163Z,25
2023-03-26T10:21:12.076Z,25
2023-03-26T10:22:23.897Z,31
2023-03-26T10:23:33.410Z,34
2023-03-26T10:24:50.312Z,30
2023-03-26T10:26:04.961Z,46
2023-03-26T10:27:14.519Z,40
2023-03-26T10:28:24.209Z,32
2023-03-26T10:29:36.741Z,30
2023-03-26T10:30:54.086Z,37
2023-03-26T10:32:05.580Z,31
2023-03-26T10:33:17.402Z,26
2023-03-26T10:34:31.858Z,34
2023-03-26T10:35:43.763Z,29
2023-03-26T10:36:55.649Z,30
2023-03-26T10:38:07.514Z,30
2023-03-26T10:39:36.457Z,36
2023-03-26T10:40:34.076Z,33
2023-03-26T10:41:46.128Z,30
2023-03-26T10:42:58.063Z,32
2023-03-26T10:44:15.056Z,26
2023-03-26T10:45:31.964Z,34
2023-03-26T10:46:46.767Z,26
2023-03-26T10:48:03.965Z,28
2023-03-26T10:49:20.833Z,25
2023-03-26T10:50:35.374Z,27
2023-03-26T10:51:47.188Z,28
2023-03-26T10:52:56.629Z,35
2023-03-26T10:54:11.528Z,36
2023-03-26T10:55:18.459Z,28
2023-03-26T10:56:35.342Z,29
2023-03-26T10:57:45.301Z,30
2023-03-26T10:58:59.731Z,32
2023-03-26T11:00:09.600Z,27
2023-03-26T11:01:19.060Z,36
2023-03-26T11:02:29.518Z,32
2023-03-26T11:03:32.666Z,25
2023-03-26T11:04:44.578Z,28
2023-03-26T11:05:54.308Z,25
2023-03-26T11:07:06.073Z,27
2023-03-26T11:08:31.286Z,33
2023-03-26T11:09:37.569Z,30
2023-03-26T11:10:54.676Z,25
2023-03-26T11:12:25.934Z,25
2023-03-26T11:13:20.686Z,29
2023-03-26T11:14:37.641Z,26
2023-03-26T11:15:54.584Z,31
2023-03-26T11:17:01.354Z,40
2023-03-26T11:18:08.244Z,37
2023-03-26T11:19:20.064Z,29
2023-03-26T11:20:31.894Z,36
2023-03-26T11:21:46.263Z,32
2023-03-26T11:22:58.163Z,27
2023-03-26T11:24:15.131Z,39
2023-03-26T11:25:32.122Z,28
2023-03-26T11:26:49.042Z,27
2023-03-26T11:28:05.951Z,40
2023-03-26T11:29:32.096Z,38
2023-03-26T11:30:32.555Z,25
2023-03-26T11:31:49.574Z,37
2023-03-26T11:32:59.289Z,37
2023-03-26T11:34:09.074Z,25
2023-03-26T11:35:39.167Z,30
2023-03-26T11:36:33.448Z,30
2023-03-26T11:37:40.180Z,32
2023-03-26T11:38:47.064Z,36
2023-03-26T11:39:55.972Z,29
2023-03-26T11:41:00.643Z,27
2023-03-26T11:42:07.668Z,33
2023-03-26T11:43:17.317Z,32
2023-03-26T11:44:24.119Z,34
2023-03-26T11:45:30.934Z,40
2023-03-26T11:46:37.883Z,33
2023-03-26T11:47:44.697Z,40
2023-03-26T11:48:54.308Z,32
2023-03-26T11:50:01.053Z,26
2023-03-26T11:51:07.933Z,32
2023-03-26T11:52:14.825Z,27
2023-03-26T11:53:21.717Z,29
2023-03-26T11:54:28.519Z,28
2023-03-26T11:55:35.325Z,27
2023-03-26T11:56:42.134Z,28
2023-03-26T11:57:51.574Z,27
2023-03-26T11:58:58.500Z,32
2023-03-26T12:00:13.085Z,36
2023-03-26T12:01:19.854Z,38
2023-03-26T12:02:29.961Z,42
2023-03-26T12:03:41.444Z,36
2023-03-26T12:04:48.251Z,29
2023-03-26T12:05:55.086Z,29
2023-03-26T12:07:02.064Z,41
2023-03-26T12:08:18.960Z,38
2023-03-26T12:09:25.708Z,44
2023-03-26T12:10:32.557Z,39
2023-03-26T12:11:42.137Z,46
2023-03-26T12:12:48.938Z,40
2023-03-26T12:13:55.674Z,47
2023-03-26T12:15:02.402Z,37
2023-03-26T12:16:09.488Z,42
2023-03-26T12:17:16.380Z,39
2023-03-26T12:18:30.909Z,35
2023-03-26T12:19:37.692Z,38
2023-03-26T12:20:44.542Z,30
2023-03-26T12:21:51.397Z,32
2023-03-26T12:22:58.162Z,27
2023-03-26T12:24:05.014Z,30
2023-03-26T12:25:11.802Z,44
2023-03-26T12:26:24.717Z,54
2023-03-26T12:27:41.679Z,48
2023-03-26T12:28:51.263Z,47
2023-03-26T12:29:58.150Z,43
2023-03-26T12:31:12.585Z,41
2023-03-26T12:32:19.567Z,30
2023-03-26T12:33:26.414Z,32
2023-03-26T12:34:35.785Z,43
2023-03-26T12:35:42.620Z,37
2023-03-26T12:36:49.396Z,32
2023-03-26T12:37:56.194Z,42
2023-03-26T12:39:16.516Z,32
2023-03-26T12:40:27.649Z,33
2023-03-26T12:42:36.859Z,37
2023-03-26T12:44:52.070Z,28
2023-03-26T12:44:52.357Z,26
2023-03-26T12:45:03.487Z,34
2023-03-26T12:47:26.433Z,36
2023-03-26T12:47:54.733Z,32
2023-03-26T12:48:32.111Z,29
2023-03-26T12:49:38.926Z,37
2023-03-26T12:50:45.767Z,35
2023-03-26T12:52:00.313Z,28
2023-03-26T12:53:12.321Z,30
2023-03-26T12:54:22.166Z,38
2023-03-26T12:55:39.109Z,41
2023-03-26T12:56:45.910Z,30
2023-03-26T12:58:00.518Z,34
2023-03-26T12:59:10.415Z,25
2023-03-26T13:00:25.000Z,27
2023-03-26T13:01:41.976Z,32
2023-03-26T13:02:48.831Z,35
2023-03-26T13:04:00.533Z,25
2023-03-26T13:05:15.467Z,41
2023-03-26T13:06:32.379Z,37
2023-03-26T13:07:44.269Z,35
2023-03-26T13:09:01.211Z,40
2023-03-26T13:10:13.051Z,30
2023-03-26T13:11:25.392Z,34
2023-03-26T13:12:37.933Z,29
2023-03-26T13:13:49.800Z,33
2023-03-26T13:15:01.649Z,30
2023-03-26T13:16:11.121Z,28
2023-03-26T13:17:28.128Z,28
2023-03-26T13:18:37.632Z,29
2023-03-26T13:19:52.346Z,42
2023-03-26T13:21:02.010Z,38
2023-03-26T13:22:11.590Z,34
2023-03-26T13:23:29.576Z,33
2023-03-26T13:24:46.486Z,38
2023-03-26T13:25:55.909Z,34
2023-03-26T13:27:12.901Z,29
2023-03-26T13:28:29.793Z,25
2023-03-26T13:29:44.402Z,29
2023-03-26T13:30:58.863Z,30
2023-03-26T13:32:10.700Z,29
2023-03-26T13:33:22.516Z,25
2023-03-26T13:34:34.400Z,31
2023-03-26T13:35:44.187Z,31
2023-03-26T13:36:53.639Z,25
2023-03-26T13:38:10.439Z,31
2023-03-26T13:39:17.415Z,29
2023-03-26T13:40:26.943Z,42
2023-03-26T13:41:36.871Z,40
2023-03-26T13:42:55.108Z,41
2023-03-26T13:44:10.711Z,40
2023-03-26T13:45:20.492Z,44
2023-03-26T13:46:35.110Z,50
2023-03-26T13:47:41.961Z,43
2023-03-26T13:48:48.670Z,44
2023-03-26T13:50:00.552Z,33
2023-03-26T13:51:10.003Z,45
2023-03-26T13:52:21.875Z,39
2023-03-26T13:53:28.720Z,41
2023-03-26T13:54:38.642Z,34
2023-03-26T13:55:48.158Z,29
2023-03-26T13:56:57.981Z,34
2023-03-26T13:58:12.576Z,38
2023-03-26T13:59:27.408Z,33
2023-03-26T14:00:39.303Z,32
2023-03-26T14:01:46.213Z,37
2023-03-26T14:02:58.168Z,37
2023-03-26T14:04:07.465Z,47
2023-03-26T14:05:19.283Z,33
2023-03-26T14:06:26.120Z,40
2023-03-26T14:07:33.011Z,41
2023-03-26T14:08:44.913Z,47
2023-03-26T14:09:51.760Z,46
2023-03-26T14:11:04.315Z,35
2023-03-26T14:12:21.248Z,48
2023-03-26T14:13:28.012Z,33
2023-03-26T14:14:37.326Z,36
2023-03-26T14:15:44.148Z,42
2023-03-26T14:16:50.985Z,39
2023-03-26T14:18:00.590Z,38
2023-03-26T14:19:15.426Z,36
2023-03-26T14:20:27.301Z,59
2023-03-26T14:21:44.257Z,47
2023-03-26T14:22:56.938Z,35
2023-03-26T14:24:06.634Z,49
2023-03-26T14:25:19.286Z,37
2023-03-26T14:26:29.099Z,41
2023-03-26T14:27:40.963Z,34
2023-03-26T14:28:47.796Z,33
2023-03-26T14:29:57.560Z,38
2023-03-26T14:31:14.110Z,43
2023-03-26T14:32:28.615Z,39
2023-03-26T14:33:40.452Z,40
2023-03-26T14:34:52.271Z,32
2023-03-26T14:36:01.984Z,35
2023-03-26T14:37:18.558Z,35
2023-03-26T14:38:33.654Z,44
2023-03-26T14:39:50.459Z,37
2023-03-26T14:41:02.226Z,33
2023-03-26T14:42:19.294Z,33
2023-03-26T14:43:33.904Z,41
2023-03-26T14:44:49.225Z,37
2023-03-26T14:46:05.531Z,31
2023-03-26T14:47:22.552Z,33
2023-03-26T14:48:29.302Z,31
2023-03-26T14:49:46.200Z,43
2023-03-26T14:51:01.082Z,38
2023-03-26T14:52:12.878Z,34
2023-03-26T14:53:19.670Z,36
2023-03-26T14:54:31.481Z,32
2023-03-26T14:55:38.299Z,30
2023-03-26T14:56:55.530Z,33
2023-03-26T14:58:07.337Z,29
2023-03-26T14:59:21.793Z,28
2023-03-26T15:00:38.965Z,28
2023-03-26T15:01:50.844Z,27
2023-03-26T15:03:02.774Z,29
2023-03-26T15:04:19.743Z,25
2023-03-26T15:05:31.660Z,27
2023-03-26T15:06:48.568Z,31
2023-03-26T15:08:05.468Z,30
2023-03-26T15:09:19.892Z,34
2023-03-26T15:10:34.839Z,34
2023-03-26T15:11:51.775Z,25
2023-03-26T15:13:08.703Z,25
2023-03-26T15:14:25.669Z,25
2023-03-26T15:15:37.601Z,28
2023-03-26T15:16:54.667Z,26
2023-03-26T15:18:06.876Z,31
2023-03-26T15:19:18.746Z,33
2023-03-26T15:20:33.563Z,30
2023-03-26T15:21:48.078Z,28
2023-03-26T15:22:59.930Z,34
2023-03-26T15:24:11.817Z,34
2023-03-26T15:25:23.716Z,29
2023-03-26T15:26:40.597Z,35
2023-03-26T15:27:50.148Z,37
2023-03-26T15:29:01.971Z,42
2023-03-26T15:30:13.904Z,35
2023-03-26T15:31:30.882Z,35
2023-03-26T15:32:45.406Z,38
2023-03-26T15:33:58.065Z,38
2023-03-26T15:35:13.233Z,38
2023-03-26T15:36:23.702Z,38
2023-03-26T15:37:33.762Z,38
2023-03-26T15:38:48.372Z,32
2023-03-26T15:40:05.278Z,31
2023-03-26T15:41:27.411Z,34
2023-03-26T15:42:41.846Z,35
2023-03-26T15:44:24.187Z,26
2023-03-26T15:46:37.856Z,32
2023-03-26T15:47:49.768Z,30
2023-03-26T15:49:01.592Z,26
2023-03-26T15:50:13.460Z,25
2023-03-26T15:51:20.345Z,28
2023-03-26T15:52:37.239Z,25
2023-03-26T15:53:54.209Z,36
2023-03-26T15:55:03.850Z,25
2023-03-26T15:56:13.486Z,28
2023-03-26T15:57:20.447Z,32
2023-03-26T15:58:37.246Z,30
2023-03-26T15:59:49.926Z,28
2023-03-26T16:01:06.992Z,26
2023-03-26T16:02:23.805Z,33
2023-03-26T16:03:30.584Z,28
2023-03-26T16:04:50.189Z,29
2023-03-26T16:05:57.986Z,29
2023-03-26T16:07:09.851Z,25
2023-03-26T16:08:24.694Z,36
2023-03-26T16:09:41.570Z,32
2023-03-26T16:10:54.515Z,36
2023-03-26T16:12:01.022Z,49
2023-03-26T16:13:07.951Z,45
2023-03-26T16:14:23.665Z,36
2023-03-26T16:15:39.769Z,40
2023-03-26T16:16:46.683Z,45
2023-03-26T16:17:58.727Z,49
2023-03-26T16:19:13.414Z,45
2023-03-26T16:20:22.715Z,47
2023-03-26T16:21:37.514Z,52
2023-03-26T16:22:47.206Z,49
2023-03-26T16:23:57.977Z,53
2023-03-26T16:25:26.678Z,57
2023-03-26T16:26:24.592Z,65